Time;durP1;ratioP1;P1;durP2;ratioP2;P2;SDS_P1;SDS_P2;PMS_P1;PMS_P2;Temp;Humidity;BMP_temperature;BMP_pressure;BME280_temperature;BME280_humidity;BME280_pressure;Samples;Min_cycle;Max_cycle;Signal;HPM_P1;HPM_P2
2022/03/28 00:00:18;;;;;;;9.10;7.57;;;14.60;79.60;;;;;;5025489;28;20472;-47
2022/03/28 00:02:46;;;;;;;10.47;7.43;;;14.60;79.50;;;;;;5031981;28;20813;-48
2022/03/28 00:05:15;;;;;;;9.40;8.40;;;14.60;79.40;;;;;;5030581;28;20506;-47
2022/03/28 00:07:43;;;;;;;9.23;6.97;;;14.60;79.40;;;;;;5021957;28;20485;-45
2022/03/28 00:10:13;;;;;;;7.17;6.10;;;14.60;79.50;;;;;;5019995;28;20491;-47
2022/03/28 00:12:42;;;;;;;8.63;7.10;;;14.60;79.40;;;;;;5031138;28;20531;-47
2022/03/28 00:15:11;;;;;;;8.87;6.80;;;14.60;79.30;;;;;;5030227;28;20460;-48
2022/03/28 00:17:39;;;;;;;7.10;6.20;;;14.60;79.30;;;;;;5024283;28;20448;-47
2022/03/28 00:20:09;;;;;;;8.30;7.50;;;14.60;79.30;;;;;;5031093;28;21034;-48
2022/03/28 00:22:38;;;;;;;6.70;6.00;;;14.60;79.30;;;;;;5022796;28;20520;-46
2022/03/28 00:25:07;;;;;;;8.80;7.40;;;14.60;79.20;;;;;;5025834;28;20486;-46
2022/03/28 00:27:36;;;;;;;8.40;6.93;;;14.60;79.20;;;;;;5046521;28;20428;-47
2022/03/28 00:30:07;;;;;;;7.70;6.90;;;14.60;79.10;;;;;;5046062;28;20529;-47
2022/03/28 00:32:35;;;;;;;7.00;6.20;;;14.60;79.10;;;;;;5026758;28;20502;-46
2022/03/28 00:35:04;;;;;;;6.27;5.67;;;14.60;79.10;;;;;;5030360;28;20494;-47
2022/03/28 00:37:32;;;;;;;6.57;5.60;;;14.60;79.00;;;;;;5026394;28;20467;-48
2022/03/28 00:40:00;;;;;;;7.13;6.40;;;14.60;78.90;;;;;;5030638;28;20510;-49
2022/03/28 00:42:28;;;;;;;7.67;7.00;;;14.60;79.10;;;;;;5031092;28;20432;-48
2022/03/28 00:44:56;;;;;;;6.63;6.03;;;14.60;79.10;;;;;;5021768;28;20508;-47
2022/03/28 00:47:26;;;;;;;7.50;6.80;;;14.60;79.00;;;;;;5028566;28;20563;-46
2022/03/28 00:49:54;;;;;;;6.67;6.07;;;14.60;78.90;;;;;;5029520;28;20551;-46
2022/03/28 00:52:24;;;;;;;7.40;6.70;;;14.60;78.90;;;;;;5024781;28;20528;-45
2022/03/28 00:54:52;;;;;;;7.23;5.70;;;14.60;78.90;;;;;;5021920;28;20495;-46
2022/03/28 00:57:20;;;;;;;8.27;6.40;;;14.60;78.90;;;;;;5030428;28;20432;-45
2022/03/28 00:59:48;;;;;;;6.97;5.90;;;14.60;78.90;;;;;;5028415;28;20491;-46
2022/03/28 01:02:16;;;;;;;7.43;5.87;;;14.60;78.90;;;;;;5023794;28;20955;-48
2022/03/28 01:04:45;;;;;;;7.53;6.77;;;14.50;78.70;;;;;;5029938;28;20471;-44
2022/03/28 01:07:14;;;;;;;8.30;7.13;;;14.50;78.70;;;;;;5025303;28;20841;-47
2022/03/28 01:09:42;;;;;;;6.73;6.00;;;14.60;78.90;;;;;;5013882;28;20514;-46
2022/03/28 01:12:11;;;;;;;9.03;6.47;;;14.50;78.60;;;;;;5030574;28;20466;-47
2022/03/28 01:14:41;;;;;;;8.83;6.80;;;14.50;78.60;;;;;;5029217;28;20511;-48
2022/03/28 01:19:57;;;;;;;6.57;5.57;;;14.50;78.60;;;;;;5010146;28;20473;-46
2022/03/28 01:22:26;;;;;;;7.03;6.30;;;14.50;78.60;;;;;;5024175;28;20468;-47
2022/03/28 01:24:59;;;;;;;7.23;5.77;;;14.50;78.60;;;;;;5026184;28;20469;-45
2022/03/28 01:27:28;;;;;;;7.73;6.97;;;14.50;78.50;;;;;;5029309;28;20906;-47
2022/03/28 01:29:56;;;;;;;6.10;5.03;;;14.50;78.70;;;;;;5029023;28;20472;-48
2022/03/28 01:32:25;;;;;;;6.43;5.83;;;14.50;78.50;;;;;;5023195;28;20447;-47
2022/03/28 01:34:53;;;;;;;8.03;7.03;;;14.50;78.40;;;;;;5029091;28;20460;-47
2022/03/28 01:37:21;;;;;;;6.60;5.90;;;14.50;78.50;;;;;;5024051;28;20424;-47
2022/03/28 01:39:50;;;;;;;8.80;6.37;;;14.50;78.40;;;;;;5008965;28;20544;-47
2022/03/28 01:42:18;;;;;;;8.73;6.30;;;14.50;78.40;;;;;;5029668;28;20434;-48
2022/03/28 01:44:50;;;;;;;9.83;6.23;;;14.50;78.40;;;;;;5028730;28;20502;-49
2022/03/28 01:47:18;;;;;;;7.23;6.30;;;14.50;78.30;;;;;;5030052;28;20513;-47
2022/03/28 01:49:46;;;;;;;7.13;5.70;;;14.50;78.40;;;;;;5029437;28;20506;-47
2022/03/28 01:52:14;;;;;;;10.00;6.80;;;14.50;78.40;;;;;;5024916;28;21035;-48
2022/03/28 01:54:42;;;;;;;8.10;7.03;;;14.50;78.30;;;;;;5019963;28;20552;-48
2022/03/28 01:57:12;;;;;;;7.30;6.27;;;14.50;78.30;;;;;;5030037;28;20459;-48
2022/03/28 01:59:40;;;;;;;9.33;6.30;;;14.50;78.40;;;;;;5026080;28;20466;-47
2022/03/28 02:02:08;;;;;;;7.63;6.47;;;14.50;78.30;;;;;;5025047;28;20463;-47
2022/03/28 02:04:36;;;;;;;7.90;6.37;;;14.50;78.40;;;;;;5033242;28;20494;-46
2022/03/28 02:07:04;;;;;;;6.63;6.00;;;14.40;78.30;;;;;;5029415;28;20472;-46
2022/03/28 02:09:32;;;;;;;7.57;6.47;;;14.40;78.30;;;;;;5014227;28;21013;-47
2022/03/28 02:12:00;;;;;;;5.90;5.30;;;14.40;78.30;;;;;;5028561;28;20479;-45
2022/03/28 02:14:30;;;;;;;7.00;6.30;;;14.40;78.30;;;;;;5032410;28;20509;-47
2022/03/28 02:16:58;;;;;;;6.83;6.03;;;14.40;78.20;;;;;;5028534;28;20443;-48
2022/03/28 02:19:26;;;;;;;7.90;7.10;;;14.40;78.40;;;;;;5033650;28;20916;-46
2022/03/28 02:21:54;;;;;;;7.50;6.07;;;14.40;78.40;;;;;;5031414;28;20869;-47
2022/03/28 02:24:22;;;;;;;6.50;5.90;;;14.40;78.40;;;;;;5019157;28;20886;-46
2022/03/28 02:26:51;;;;;;;7.47;6.60;;;14.40;78.40;;;;;;5033551;28;20460;-46
2022/03/28 02:29:19;;;;;;;5.60;5.10;;;14.40;78.30;;;;;;5033012;28;20815;-47
2022/03/28 02:31:49;;;;;;;7.80;5.60;;;14.40;78.20;;;;;;5028230;28;20447;-49
2022/03/28 02:34:17;;;;;;;7.00;5.13;;;14.40;78.30;;;;;;5031772;28;21059;-47
2022/03/28 02:36:45;;;;;;;7.30;5.57;;;14.40;78.30;;;;;;5032029;28;20474;-48
2022/03/28 02:39:13;;;;;;;6.80;6.07;;;14.40;78.40;;;;;;5012517;28;20467;-46
2022/03/28 02:41:41;;;;;;;5.43;4.93;;;14.40;78.40;;;;;;5027348;28;20450;-48
2022/03/28 02:44:09;;;;;;;6.67;6.07;;;14.40;78.40;;;;;;5032195;28;20467;-46
2022/03/28 02:46:38;;;;;;;6.97;6.27;;;14.40;78.50;;;;;;5026639;28;20548;-48
2022/03/28 02:49:09;;;;;;;6.90;6.30;;;14.40;78.40;;;;;;5032913;28;20453;-47
2022/03/28 02:51:37;;;;;;;7.67;6.10;;;14.40;78.50;;;;;;5032282;28;20455;-47
2022/03/28 02:54:05;;;;;;;8.10;6.80;;;14.40;78.40;;;;;;5015051;28;20466;-48
2022/03/28 02:56:33;;;;;;;6.10;5.50;;;14.40;78.40;;;;;;5033192;28;20436;-47
2022/03/28 02:59:01;;;;;;;6.70;5.27;;;14.40;78.40;;;;;;5030685;28;20538;-46
2022/03/28 03:01:30;;;;;;;6.30;5.60;;;14.40;78.60;;;;;;5032142;28;20436;-47
2022/03/28 03:04:00;;;;;;;8.30;5.37;;;14.40;78.50;;;;;;5024926;28;20528;-49
2022/03/28 03:06:29;;;;;;;5.87;5.23;;;14.40;78.40;;;;;;5032633;28;20490;-46
2022/03/28 03:08:57;;;;;;;7.90;5.93;;;14.40;78.50;;;;;;5013457;28;20461;-47
2022/03/28 03:11:26;;;;;;;5.73;5.13;;;14.40;78.40;;;;;;5027678;28;20460;-46
2022/03/28 03:13:56;;;;;;;6.07;5.50;;;14.30;78.30;;;;;;5024741;28;20475;-47
2022/03/28 03:16:24;;;;;;;6.67;5.20;;;14.30;78.40;;;;;;5031527;28;20451;-48
2022/03/28 03:18:53;;;;;;;8.00;5.87;;;14.30;78.40;;;;;;5031722;28;20863;-48
2022/03/28 03:21:21;;;;;;;5.87;5.20;;;14.30;78.40;;;;;;5031947;28;20496;-48
2022/03/28 03:23:51;;;;;;;6.03;5.37;;;14.30;78.50;;;;;;5019862;28;20462;-47
2022/03/28 03:26:19;;;;;;;5.07;4.60;;;14.30;78.60;;;;;;5029950;28;20461;-47
2022/03/28 03:28:47;;;;;;;6.80;6.03;;;14.30;78.60;;;;;;5031951;28;20436;-48
2022/03/28 03:31:15;;;;;;;5.50;5.00;;;14.30;78.50;;;;;;5030761;28;20456;-48
2022/03/28 03:33:43;;;;;;;5.70;5.10;;;14.30;78.40;;;;;;5031755;28;20959;-47
2022/03/28 03:36:11;;;;;;;6.77;5.30;;;14.30;78.50;;;;;;5031004;28;20539;-46
2022/03/28 03:38:39;;;;;;;6.97;5.53;;;14.30;78.50;;;;;;5024655;28;21001;-47
2022/03/28 03:41:08;;;;;;;7.30;5.63;;;14.30;78.40;;;;;;5031170;28;20507;-48
2022/03/28 03:43:37;;;;;;;8.37;5.53;;;14.30;78.50;;;;;;5032952;28;20804;-47
2022/03/28 03:46:05;;;;;;;5.70;4.73;;;14.30;78.60;;;;;;5024019;28;20910;-47
2022/03/28 03:48:34;;;;;;;6.23;5.27;;;14.30;78.50;;;;;;5030643;28;20461;-47
2022/03/28 03:51:02;;;;;;;5.23;4.73;;;14.30;78.40;;;;;;5030591;28;20463;-48
2022/03/28 03:53:30;;;;;;;7.40;6.20;;;14.30;78.40;;;;;;5017176;28;20975;-45
2022/03/28 03:55:59;;;;;;;7.00;6.30;;;14.30;78.30;;;;;;5028490;28;20486;-46
2022/03/28 03:58:28;;;;;;;7.77;5.50;;;14.30;78.40;;;;;;5031442;28;20845;-47
2022/03/28 04:00:56;;;;;;;6.87;5.73;;;14.20;78.30;;;;;;5031980;28;20509;-48
2022/03/28 04:03:24;;;;;;;6.30;5.13;;;14.20;78.40;;;;;;5020974;28;20970;-48
2022/03/28 04:05:53;;;;;;;6.83;6.17;;;14.20;78.10;;;;;;5030533;28;20485;-47
2022/03/28 04:08:21;;;;;;;5.73;5.10;;;14.20;78.10;;;;;;5017747;28;20476;-47
2022/03/28 04:10:49;;;;;;;6.37;5.43;;;14.20;78.10;;;;;;5019712;28;20496;-47
2022/03/28 04:13:17;;;;;;;7.60;5.90;;;14.20;78.30;;;;;;5031738;28;20544;-46
2022/03/28 04:15:47;;;;;;;7.17;6.47;;;14.20;78.30;;;;;;5028372;28;20558;-49
2022/03/28 04:18:15;;;;;;;7.00;5.23;;;14.20;78.20;;;;;;5030975;28;20443;-47
2022/03/28 04:20:43;;;;;;;7.03;5.03;;;14.20;78.20;;;;;;5030317;28;20499;-46
2022/03/28 04:23:11;;;;;;;8.80;6.40;;;14.20;78.20;;;;;;5017798;28;20560;-48
2022/03/28 04:25:39;;;;;;;6.40;5.80;;;14.20;78.30;;;;;;5028783;28;20480;-47
2022/03/28 04:28:08;;;;;;;6.10;5.50;;;14.20;78.30;;;;;;5029987;28;20531;-44
2022/03/28 04:30:36;;;;;;;7.23;6.53;;;14.20;78.20;;;;;;5030007;28;20479;-48
2022/03/28 04:33:07;;;;;;;6.30;5.70;;;14.20;78.30;;;;;;5021100;28;20483;-48
2022/03/28 04:35:35;;;;;;;7.83;6.07;;;14.20;78.20;;;;;;5029157;28;20555;-46
2022/03/28 04:38:05;;;;;;;5.23;4.73;;;14.20;78.20;;;;;;5019784;28;20452;-49
2022/03/28 04:40:35;;;;;;;6.17;5.40;;;14.20;78.30;;;;;;5023096;28;20480;-46
2022/03/28 04:43:04;;;;;;;5.70;5.20;;;14.10;78.20;;;;;;5030759;28;20913;-49
2022/03/28 04:45:32;;;;;;;5.80;4.97;;;14.20;78.30;;;;;;5030048;28;21110;-47
2022/03/28 04:48:01;;;;;;;5.57;5.00;;;14.10;78.20;;;;;;5027623;28;20538;-48
2022/03/28 04:50:30;;;;;;;4.83;4.43;;;14.10;78.30;;;;;;5030180;28;20975;-47
2022/03/28 04:52:58;;;;;;;6.33;5.07;;;14.10;78.30;;;;;;5023397;28;20493;-46
2022/03/28 04:55:32;;;;;;;6.00;5.33;;;14.10;78.30;;;;;;5030278;28;20496;-48
2022/03/28 04:58:00;;;;;;;7.23;5.67;;;14.10;78.40;;;;;;5030708;28;20444;-47
2022/03/28 05:00:28;;;;;;;5.60;5.00;;;14.10;78.30;;;;;;5026426;28;20893;-47
2022/03/28 05:02:57;;;;;;;5.97;5.30;;;14.10;78.30;;;;;;5029623;28;20459;-48
2022/03/28 05:05:25;;;;;;;5.47;4.80;;;14.10;79.60;;;;;;5029857;28;20467;-47
2022/03/28 05:07:55;;;;;;;6.50;5.57;;;14.10;78.40;;;;;;5020508;28;20491;-46
2022/03/28 05:10:24;;;;;;;5.90;4.77;;;14.10;78.30;;;;;;5027636;28;21064;-46
2022/03/28 05:12:52;;;;;;;6.47;5.87;;;14.10;78.30;;;;;;5030137;28;21109;-46
2022/03/28 05:15:20;;;;;;;8.43;6.13;;;14.10;78.30;;;;;;5024683;28;20502;-48
2022/03/28 05:17:48;;;;;;;6.00;5.37;;;14.10;78.40;;;;;;5023845;28;20431;-48
2022/03/28 05:20:16;;;;;;;6.13;4.77;;;14.10;78.30;;;;;;5030371;28;20501;-46
2022/03/28 05:22:48;;;;;;;6.97;4.73;;;14.10;78.30;;;;;;5025177;28;20865;-46
2022/03/28 05:25:18;;;;;;;6.23;5.13;;;14.10;78.40;;;;;;5029012;28;20486;-46
2022/03/28 05:27:47;;;;;;;6.10;5.50;;;14.10;78.40;;;;;;5030683;28;20864;-47
2022/03/28 05:30:17;;;;;;;6.37;5.23;;;14.10;78.40;;;;;;5029944;28;20532;-46
2022/03/28 05:32:45;;;;;;;7.83;5.80;;;14.10;78.40;;;;;;5026832;28;20557;-47
2022/03/28 05:35:13;;;;;;;5.50;5.10;;;14.10;78.50;;;;;;5029473;28;20467;-48
2022/03/28 05:37:42;;;;;;;6.67;5.13;;;14.00;78.40;;;;;;5027086;28;20456;-49
2022/03/28 05:40:11;;;;;;;6.27;5.63;;;14.00;78.40;;;;;;5028607;28;20598;-44
2022/03/28 05:42:41;;;;;;;6.17;5.27;;;14.00;78.40;;;;;;5029095;28;20442;-48
2022/03/28 05:45:11;;;;;;;6.70;5.50;;;14.00;78.40;;;;;;5028964;28;20988;-48
2022/03/28 05:47:39;;;;;;;5.53;4.90;;;14.00;78.20;;;;;;5012632;28;20452;-46
2022/03/28 05:50:09;;;;;;;6.53;5.00;;;14.00;78.40;;;;;;5030522;28;20977;-49
2022/03/28 05:52:37;;;;;;;5.73;5.07;;;14.00;78.40;;;;;;5022663;28;20570;-48
2022/03/28 05:55:06;;;;;;;6.47;5.20;;;14.00;78.30;;;;;;5015702;28;20474;-47
2022/03/28 05:57:35;;;;;;;6.00;5.40;;;14.00;78.40;;;;;;5030418;28;20434;-47
2022/03/28 06:00:07;;;;;;;6.23;4.97;;;14.00;78.30;;;;;;5029498;28;20504;-47
2022/03/28 06:02:39;;;;;;;8.03;6.00;;;14.00;78.30;;;;;;5012987;28;21020;-47
2022/03/28 06:05:08;;;;;;;5.67;5.17;;;14.00;78.30;;;;;;5015616;28;20513;-46
2022/03/28 06:07:36;;;;;;;7.83;5.80;;;14.00;78.30;;;;;;5040130;28;20441;-51
2022/03/28 06:10:05;;;;;;;8.20;5.60;;;14.00;78.30;;;;;;5029689;28;20467;-49
2022/03/28 06:12:33;;;;;;;6.93;5.17;;;14.00;78.30;;;;;;5030420;28;20509;-48
2022/03/28 06:15:01;;;;;;;6.17;5.53;;;13.90;78.20;;;;;;5007332;28;21007;-47
2022/03/28 06:17:31;;;;;;;6.20;5.60;;;14.00;78.30;;;;;;5010852;28;20880;-47
2022/03/28 06:20:02;;;;;;;5.43;4.90;;;13.90;78.30;;;;;;5029118;28;20990;-49
2022/03/28 06:22:30;;;;;;;8.20;5.83;;;13.90;78.30;;;;;;5023454;28;20443;-48
2022/03/28 06:24:59;;;;;;;5.83;5.17;;;13.90;78.30;;;;;;5027288;28;20474;-46
2022/03/28 06:27:47;;;;;;;7.50;6.17;;;13.90;78.30;;;;;;5030430;28;20449;-46
2022/03/28 06:30:15;;;;;;;7.30;5.50;;;13.90;78.40;;;;;;5030020;28;20458;-47
2022/03/28 06:32:45;;;;;;;6.53;5.83;;;13.90;78.30;;;;;;5021052;28;20554;-47
2022/03/28 06:35:13;;;;;;;5.30;4.80;;;13.90;78.40;;;;;;5028899;28;20464;-49
2022/03/28 06:37:41;;;;;;;6.30;5.70;;;13.90;78.40;;;;;;5021436;28;20502;-47
2022/03/28 06:40:10;;;;;;;5.87;5.27;;;13.90;78.40;;;;;;5012374;28;20911;-46
2022/03/28 06:42:42;;;;;;;5.70;4.97;;;13.90;78.40;;;;;;5029771;28;20445;-47
2022/03/28 06:45:11;;;;;;;5.40;4.57;;;13.90;78.40;;;;;;5022617;28;20562;-48
2022/03/28 06:47:40;;;;;;;6.20;5.13;;;13.90;78.40;;;;;;5025813;28;20439;-48
2022/03/28 06:50:10;;;;;;;6.77;5.33;;;13.90;78.40;;;;;;5032386;28;20516;-48
2022/03/28 06:52:38;;;;;;;6.13;4.57;;;14.00;78.40;;;;;;5029303;28;20475;-44
2022/03/28 06:55:07;;;;;;;4.50;4.10;;;14.00;78.50;;;;;;5029039;28;20559;-46
2022/03/28 06:57:35;;;;;;;7.97;5.60;;;14.00;78.50;;;;;;5033312;28;20470;-47
2022/03/28 07:00:04;;;;;;;5.63;5.03;;;14.00;78.40;;;;;;5033294;28;20455;-47
2022/03/28 07:02:37;;;;;;;8.10;6.47;;;14.00;78.20;;;;;;5021197;28;20472;-47
2022/03/28 07:05:10;;;;;;;5.57;4.90;;;14.00;77.90;;;;;;5032060;28;20558;-48
2022/03/28 07:07:42;;;;;;;5.90;5.30;;;14.00;78.20;;;;;;5024106;28;20460;-47
2022/03/28 07:10:11;;;;;;;7.37;5.13;;;14.00;78.20;;;;;;5013493;28;20494;-46
2022/03/28 07:12:39;;;;;;;7.27;5.07;;;14.00;78.20;;;;;;5027552;28;20452;-45
2022/03/28 07:15:10;;;;;;;6.73;4.70;;;14.00;78.10;;;;;;5025399;28;20502;-47
2022/03/28 07:17:51;;;;;;;6.93;4.73;;;14.00;79.40;;;;;;5025219;28;20943;-47
2022/03/28 07:20:22;;;;;;;7.03;4.63;;;14.00;78.20;;;;;;5030777;28;20482;-48
2022/03/28 07:22:51;;;;;;;6.47;5.00;;;14.00;78.10;;;;;;5021115;28;20468;-48
2022/03/28 07:25:20;;;;;;;4.70;3.50;;;14.00;78.00;;;;;;5029586;28;21058;-47
2022/03/28 07:27:49;;;;;;;4.73;4.27;;;14.00;78.00;;;;;;5033087;28;20447;-49
2022/03/28 07:30:18;;;;;;;5.20;4.70;;;14.00;78.00;;;;;;5031022;28;20483;-47
2022/03/28 07:32:47;;;;;;;5.63;4.47;;;14.00;78.00;;;;;;5023045;28;20493;-47
2022/03/28 07:35:17;;;;;;;4.87;4.43;;;14.00;78.00;;;;;;5028354;28;20458;-47
2022/03/28 07:37:48;;;;;;;5.17;4.67;;;14.00;78.00;;;;;;5024188;28;20824;-47
2022/03/28 07:40:16;;;;;;;4.30;3.90;;;14.10;78.10;;;;;;5027894;28;20971;-45
2022/03/28 07:42:46;;;;;;;5.87;4.20;;;14.10;78.20;;;;;;5031662;28;20982;-48
2022/03/28 07:45:14;;;;;;;4.57;4.13;;;14.10;78.20;;;;;;5028828;28;20476;-47
2022/03/28 07:47:43;;;;;;;4.40;4.00;;;14.10;78.10;;;;;;5024365;28;20469;-49
2022/03/28 07:50:12;;;;;;;4.80;3.87;;;14.10;78.30;;;;;;5029182;28;20591;-46
2022/03/28 07:52:40;;;;;;;4.30;3.90;;;14.10;78.20;;;;;;5029908;28;20466;-47
2022/03/28 07:55:11;;;;;;;4.43;4.03;;;14.10;78.10;;;;;;5030721;28;20463;-47
2022/03/28 07:57:40;;;;;;;4.40;4.00;;;14.10;78.20;;;;;;5031558;28;20448;-47
2022/03/28 08:00:11;;;;;;;4.53;4.13;;;14.10;78.20;;;;;;5016526;28;20554;-46
2022/03/28 08:02:56;;;;;;;5.33;4.00;;;14.10;78.20;;;;;;5031198;28;20543;-47
2022/03/28 08:05:24;;;;;;;5.60;4.50;;;14.10;78.30;;;;;;5031193;28;20463;-47
2022/03/28 08:07:54;;;;;;;4.03;3.37;;;14.10;78.20;;;;;;5023378;28;20463;-49
2022/03/28 08:10:24;;;;;;;4.97;4.57;;;14.10;78.10;;;;;;5031059;28;20546;-47
2022/03/28 08:12:53;;;;;;;4.50;4.10;;;14.10;78.10;;;;;;5030677;28;20479;-47
2022/03/28 08:15:22;;;;;;;3.87;3.57;;;14.10;78.10;;;;;;5024689;28;20471;-49
2022/03/28 08:17:51;;;;;;;4.67;4.27;;;14.10;78.00;;;;;;5030059;28;20999;-45
2022/03/28 08:20:19;;;;;;;4.60;4.03;;;14.10;78.10;;;;;;5030781;28;20463;-47
2022/03/28 08:22:49;;;;;;;4.70;4.20;;;14.10;78.00;;;;;;5010552;28;20879;-48
2022/03/28 08:25:19;;;;;;;3.83;3.50;;;14.10;78.00;;;;;;5020946;28;20495;-48
2022/03/28 08:27:49;;;;;;;4.47;4.17;;;14.10;77.90;;;;;;5014062;28;20433;-47
2022/03/28 08:30:17;;;;;;;5.60;4.37;;;14.10;78.00;;;;;;5030347;28;20456;-47
2022/03/28 08:32:47;;;;;;;4.60;4.17;;;14.10;78.00;;;;;;5028402;28;20431;-47
2022/03/28 08:35:16;;;;;;;4.63;4.00;;;14.10;78.00;;;;;;5010184;28;21007;-49
2022/03/28 08:37:44;;;;;;;4.60;4.03;;;14.20;78.00;;;;;;5019648;28;20908;-48
2022/03/28 08:40:14;;;;;;;4.37;3.97;;;14.10;77.90;;;;;;5031300;28;20463;-48
2022/03/28 08:42:42;;;;;;;4.43;4.03;;;14.10;77.90;;;;;;5031053;28;20539;-48
2022/03/28 08:45:14;;;;;;;8.60;5.30;;;14.10;78.00;;;;;;5029890;28;20464;-47
2022/03/28 08:47:47;;;;;;;6.87;4.90;;;14.20;78.90;;;;;;5025981;28;20456;-48
2022/03/28 08:50:36;;;;;;;8.57;6.40;;;14.30;78.70;;;;;;5030189;28;20460;-48
2022/03/28 08:53:05;;;;;;;12.43;8.80;;;14.40;78.10;;;;;;5023134;28;20468;-49
2022/03/28 08:55:33;;;;;;;11.77;7.70;;;14.50;78.10;;;;;;5031101;28;20967;-48
2022/03/28 08:58:02;;;;;;;15.67;11.37;;;14.60;77.30;;;;;;5029727;28;20437;-47
2022/03/28 09:00:31;;;;;;;12.87;9.70;;;14.70;78.20;;;;;;5030246;28;21022;-48
2022/03/28 09:02:59;;;;;;;18.53;11.63;;;14.70;77.20;;;;;;5029025;28;20468;-47
2022/03/28 09:05:33;;;;;;;16.30;12.50;;;14.80;77.90;;;;;;5030317;28;20470;-48
2022/03/28 09:08:02;;;;;;;16.70;12.00;;;14.80;77.10;;;;;;5026648;28;20448;-45
2022/03/28 09:10:33;;;;;;;13.50;10.77;;;14.80;77.10;;;;;;5030790;28;20478;-49
2022/03/28 09:13:03;;;;;;;13.27;11.27;;;14.80;76.80;;;;;;5030801;28;21066;-49
2022/03/28 09:15:47;;;;;;;13.97;12.20;;;14.80;76.90;;;;;;5022933;28;20477;-48
2022/03/28 09:18:24;;;;;;;13.57;10.80;;;14.80;77.00;;;;;;5010742;28;20519;-48
2022/03/28 09:20:53;;;;;;;15.00;11.27;;;14.80;77.00;;;;;;5026512;28;20514;-45
2022/03/28 09:23:34;;;;;;;17.63;12.63;;;14.80;77.30;;;;;;5025306;22;20531;-67
2022/03/28 09:26:07;;;;;;;15.47;12.10;;;14.80;77.70;;;;;;5011192;28;20465;-67
2022/03/28 09:28:47;;;;;;;19.30;14.10;;;14.80;77.40;;;;;;5012215;28;20437;-65
2022/03/28 09:31:24;;;;;;;17.23;11.93;;;14.80;77.60;;;;;;5009569;28;20551;-71
2022/03/28 09:33:57;;;;;;;23.60;16.30;;;14.80;77.80;;;;;;5000092;28;20496;-71
2022/03/28 09:36:53;;;;;;;17.47;13.70;;;14.80;78.10;;;;;;5011606;28;20992;-71
2022/03/28 09:39:23;;;;;;;22.40;15.60;;;14.80;78.30;;;;;;5007904;28;20542;-69
2022/03/28 09:42:03;;;;;;;20.17;17.83;;;14.80;78.30;;;;;;5011652;28;20425;-72
2022/03/28 09:44:36;;;;;;;23.33;15.70;;;14.80;78.50;;;;;;5008686;28;20453;-72
2022/03/28 09:47:11;;;;;;;21.87;16.70;;;14.80;78.50;;;;;;5000603;28;20439;-70
2022/03/28 09:49:42;;;;;;;21.90;16.07;;;14.80;78.70;;;;;;5010434;28;20456;-70
2022/03/28 09:52:13;;;;;;;18.43;15.97;;;14.80;78.90;;;;;;5007928;28;20457;-70
2022/03/28 09:54:51;;;;;;;21.40;17.17;;;14.80;79.10;;;;;;5009562;28;20857;-71
2022/03/28 09:57:22;;;;;;;23.07;16.97;;;14.80;79.10;;;;;;5010854;28;20436;-71
2022/03/28 09:59:51;;;;;;;27.87;18.33;;;14.80;79.40;;;;;;5011513;28;20453;-70
2022/03/28 10:02:24;;;;;;;22.20;17.23;;;14.80;79.40;;;;;;4997740;28;20473;-71
2022/03/28 10:04:56;;;;;;;24.83;18.00;;;14.80;79.50;;;;;;4990226;28;20474;-70
2022/03/28 10:07:24;;;;;;;23.47;16.63;;;14.80;79.60;;;;;;4992309;28;20445;-72
2022/03/28 10:09:53;;;;;;;18.53;16.10;;;14.80;79.50;;;;;;5000057;28;20473;-70
2022/03/28 10:12:23;;;;;;;22.53;17.57;;;14.80;79.20;;;;;;5011879;28;20445;-71
2022/03/28 10:14:54;;;;;;;24.03;17.47;;;14.80;79.30;;;;;;5011052;28;20473;-71
2022/03/28 10:17:24;;;;;;;22.93;16.97;;;14.90;79.50;;;;;;5005002;28;20500;-71
2022/03/28 10:19:52;;;;;;;24.43;18.70;;;14.90;79.90;;;;;;5000549;28;20473;-71
2022/03/28 10:22:26;;;;;;;21.77;16.03;;;14.90;79.50;;;;;;5001185;28;20505;-71
2022/03/28 10:24:58;;;;;;;23.93;18.17;;;14.90;79.40;;;;;;5004156;28;20861;-72
2022/03/28 10:27:27;;;;;;;25.17;17.10;;;14.90;79.30;;;;;;5015574;28;20421;-72
2022/03/28 10:30:09;;;;;;;23.80;16.77;;;14.90;79.00;;;;;;5014262;28;21063;-71
2022/03/28 10:32:39;;;;;;;28.57;17.50;;;14.90;78.90;;;;;;5009562;28;20459;-70
2022/03/28 10:35:08;;;;;;;23.23;16.90;;;14.90;78.60;;;;;;5013475;28;20518;-67
2022/03/28 10:37:38;;;;;;;21.53;17.03;;;14.90;78.60;;;;;;5008311;28;20781;-67
2022/03/28 10:40:27;;;;;;;22.30;15.97;;;14.90;78.70;;;;;;5006536;28;20480;-67
2022/03/28 10:43:04;;;;;;;21.20;16.77;;;15.00;78.70;;;;;;5015306;28;20511;-67
2022/03/28 10:45:40;;;;;;;23.47;17.30;;;14.90;78.50;;;;;;5013196;28;20531;-68
2022/03/28 10:48:10;;;;;;;24.67;16.53;;;15.00;78.60;;;;;;5001457;28;20851;-68
2022/03/28 10:50:44;;;;;;;23.53;17.40;;;15.00;78.40;;;;;;5008633;28;21060;-67
2022/03/28 10:53:16;;;;;;;22.53;17.70;;;15.00;78.40;;;;;;4996289;28;20801;-67
2022/03/28 10:55:48;;;;;;;22.60;16.27;;;15.00;78.50;;;;;;5014356;28;21044;-68
2022/03/28 10:58:22;;;;;;;29.23;19.63;;;15.00;78.70;;;;;;5014870;28;20469;-66
2022/03/28 11:01:19;;;;;;;24.93;18.10;;;15.00;78.60;;;;;;5002930;28;20887;-67
2022/03/28 11:03:53;;;;;;;27.50;18.47;;;15.00;78.60;;;;;;4994699;28;20460;-69
2022/03/28 11:06:52;;;;;;;24.83;17.93;;;15.00;78.50;;;;;;4999942;28;20433;-69
2022/03/28 11:09:54;;;;;;;19.77;16.40;;;15.00;78.60;;;;;;5006878;28;20517;-71
2022/03/28 11:12:29;;;;;;;25.37;17.23;;;15.00;79.90;;;;;;4972768;28;20533;-74
2022/03/28 11:15:00;;;;;;;24.67;18.67;;;15.00;78.80;;;;;;4994325;28;20464;-73
2022/03/28 11:17:30;;;;;;;21.17;17.67;;;14.90;78.90;;;;;;4995491;28;20453;-74
2022/03/28 11:20:08;;;;;;;23.00;17.33;;;14.90;79.30;;;;;;4997385;28;20477;-74
2022/03/28 11:22:48;;;;;;;19.00;16.03;;;14.90;79.40;;;;;;5009538;28;20476;-74
2022/03/28 11:25:41;;;;;;;20.73;15.97;;;14.80;79.70;;;;;;5008591;28;20507;-74
2022/03/28 11:28:13;;;;;;;22.10;14.20;;;14.70;79.60;;;;;;5011617;28;20514;-76
2022/03/28 11:30:50;;;;;;;21.77;15.57;;;14.70;79.80;;;;;;5014107;28;20457;-74
2022/03/28 11:33:21;;;;;;;23.03;16.57;;;14.70;79.90;;;;;;5000483;28;20511;-74
2022/03/28 11:35:56;;;;;;;22.23;13.07;;;14.70;80.00;;;;;;5011657;28;20483;-74
2022/03/28 11:38:25;;;;;;;18.47;13.47;;;14.70;80.00;;;;;;5003581;28;20452;-75
2022/03/28 11:40:55;;;;;;;20.83;14.00;;;14.70;80.10;;;;;;5013334;28;20477;-74
2022/03/28 11:43:31;;;;;;;17.60;12.03;;;14.70;79.50;;;;;;5013654;28;20464;-74
2022/03/28 11:46:01;;;;;;;15.30;12.50;;;14.70;79.70;;;;;;5012739;28;20523;-74
2022/03/28 11:48:29;;;;;;;16.80;12.10;;;14.70;79.90;;;;;;5012655;28;20522;-74
2022/03/28 11:50:59;;;;;;;15.73;13.10;;;14.60;79.80;;;;;;5013656;28;20536;-74
2022/03/28 11:53:27;;;;;;;23.47;11.90;;;14.60;79.40;;;;;;5009754;28;20505;-74
2022/03/28 11:55:57;;;;;;;17.00;13.60;;;14.60;79.40;;;;;;5013226;28;20595;-74
2022/03/28 11:58:30;;;;;;;16.07;12.90;;;14.60;79.30;;;;;;5013851;28;20461;-74
2022/03/28 12:01:07;;;;;;;15.00;11.03;;;14.60;79.20;;;;;;5012205;28;20893;-74
2022/03/28 12:03:37;;;;;;;12.30;11.00;;;14.60;79.10;;;;;;5012235;28;20535;-74
2022/03/28 12:06:08;;;;;;;13.70;11.27;;;14.60;79.10;;;;;;5011899;28;20526;-74
2022/03/28 12:08:42;;;;;;;12.77;10.60;;;14.60;79.00;;;;;;5009040;28;20498;-74
2022/03/28 12:11:14;;;;;;;19.60;13.03;;;14.60;78.90;;;;;;5010378;28;20523;-73
2022/03/28 12:13:42;;;;;;;14.23;11.50;;;14.60;78.90;;;;;;5010839;28;20484;-75
2022/03/28 12:16:10;;;;;;;15.03;9.90;;;14.60;78.60;;;;;;5006151;28;20466;-74
2022/03/28 12:18:38;;;;;;;15.30;11.70;;;14.60;78.70;;;;;;5008675;28;20457;-74
2022/03/28 12:21:08;;;;;;;13.43;10.87;;;14.60;78.70;;;;;;5013010;28;20465;-74
2022/03/28 12:23:38;;;;;;;15.97;11.10;;;14.60;78.80;;;;;;5004215;28;20457;-74
2022/03/28 12:26:06;;;;;;;17.20;11.50;;;14.60;78.50;;;;;;5012046;28;20465;-74
2022/03/28 12:28:38;;;;;;;14.53;11.57;;;14.60;78.50;;;;;;5012697;28;20436;-74
2022/03/28 12:31:08;;;;;;;12.17;10.67;;;14.60;78.60;;;;;;5012225;28;20473;-74
2022/03/28 12:33:39;;;;;;;13.10;11.67;;;14.60;78.60;;;;;;5002515;28;20568;-74
2022/03/28 12:36:10;;;;;;;15.50;12.43;;;14.60;78.60;;;;;;5011704;28;20481;-74
2022/03/28 12:38:41;;;;;;;12.57;11.13;;;14.60;78.40;;;;;;5009976;28;20445;-74
2022/03/28 12:41:14;;;;;;;12.70;9.90;;;14.60;78.40;;;;;;5011699;28;20530;-74
2022/03/28 12:43:47;;;;;;;18.73;11.23;;;14.60;78.40;;;;;;5012924;28;20452;-73
2022/03/28 12:46:16;;;;;;;15.40;10.87;;;14.60;78.40;;;;;;4999962;28;20480;-73
2022/03/28 12:48:46;;;;;;;13.43;11.70;;;14.60;78.20;;;;;;5010179;28;20524;-74
2022/03/28 12:51:24;;;;;;;15.80;11.33;;;14.60;78.10;;;;;;5012032;28;20873;-74
2022/03/28 12:54:00;;;;;;;13.30;10.97;;;14.70;78.40;;;;;;5013845;28;20552;-75
2022/03/28 12:56:28;;;;;;;14.53;10.57;;;14.70;78.30;;;;;;5011729;28;20567;-72
2022/03/28 12:58:59;;;;;;;18.30;12.70;;;14.70;78.20;;;;;;5012092;28;20480;-73